LFHP/LPY METAR and TAF weather

Enter ICAO airport designator
Station Type Date Time Source
LFHP METAR 2019/05/23 19:00 UTC NOAA

LFHP 231900Z AUTO 35006KT CAVOK 16/04 Q1017


Station Type Date Time Source
LFHP Decoded METAR 2019/05/23 19:00 UTC NOAA

Le Puy, France (LFHP) 45-05N 003-46E 833M
May 23, 2019 - 03:00 PM EDT / 2019.05.23 1900 UTC
Wind: from the N (350 degrees) at 7 MPH (6 KT):0
Visibility: greater than 7 mile(s):0
Temperature: 60 F (16 C)
Dew Point: 39 F (4 C)
Relative Humidity: 44%
Pressure (altimeter): 30.03 in. Hg (1017 hPa)
ob: LFHP 231900Z AUTO 35006KT CAVOK 16/04 Q1017
cycle: 19

Station Type Date Time Source
LFHP TAF UTC NOAA

Error!

Example: see airport list